Time;durP1;ratioP1;P1;durP2;ratioP2;P2;SDS_P1;SDS_P2;PMS_P1;PMS_P2;Temp;Humidity;BMP_temperature;BMP_pressure;BME280_temperature;BME280_humidity;BME280_pressure;Samples;Min_cycle;Max_cycle;Signal;HPM_P1;HPM_P2
2023/09/21 00:01:38;;;;;;;6.00;5.30;;;;;;;21.92;61.76;98649.73;140814;1246;22541;-82
2023/09/21 00:04:40;;;;;;;11.70;5.30;;;;;;;21.93;61.51;98648.29;140678;1246;22393;-84
2023/09/21 00:07:42;;;;;;;9.90;5.80;;;;;;;21.97;61.38;98647.07;140742;1246;22536;-82
2023/09/21 00:10:43;;;;;;;10.20;5.70;;;;;;;21.96;61.09;98648.38;140727;1246;22804;-83
2023/09/21 00:13:44;;;;;;;7.80;4.90;;;;;;;21.89;61.33;98648.98;140471;1246;22536;-83
2023/09/21 00:16:45;;;;;;;11.50;5.70;;;;;;;21.88;61.17;98651.67;140752;1247;22520;-81
2023/09/21 00:19:47;;;;;;;11.00;5.90;;;;;;;21.83;61.45;98649.56;140821;1246;23090;-82
2023/09/21 00:22:48;;;;;;;10.90;6.30;;;;;;;21.89;61.54;98644.92;140311;1246;22586;-83
2023/09/21 00:25:49;;;;;;;63.40;10.20;;;;;;;21.86;61.57;98642.89;140187;1246;22564;-85
2023/09/21 00:28:51;;;;;;;45.80;8.40;;;;;;;21.69;61.81;98637.31;140966;1246;22291;-84
2023/09/21 00:31:56;;;;;;;17.70;6.50;;;;;;;21.51;62.50;98640.07;140357;1246;22207;-84
2023/09/21 00:34:57;;;;;;;17.10;6.50;;;;;;;21.45;62.75;98637.08;140353;1246;22381;-84
2023/09/21 00:38:00;;;;;;;12.60;7.50;;;;;;;21.40;63.06;98635.84;140664;1246;22650;-84
2023/09/21 00:41:05;;;;;;;14.10;6.70;;;;;;;21.37;63.16;98634.02;140625;1246;22371;-84
2023/09/21 00:44:06;;;;;;;10.40;6.40;;;;;;;21.30;63.53;98632.49;140410;1246;22406;-84
2023/09/21 00:47:07;;;;;;;15.30;7.00;;;;;;;21.32;63.72;98629.58;140651;1246;22506;-84
2023/09/21 00:50:11;;;;;;;32.40;7.40;;;;;;;21.35;63.87;98629.67;140903;1246;22413;-85
2023/09/21 00:53:13;;;;;;;12.80;7.70;;;;;;;21.23;64.11;98627.77;140379;1247;22902;-85
2023/09/21 00:56:16;;;;;;;9.30;6.90;;;;;;;21.26;64.38;98626.44;140289;1246;22654;-85
2023/09/21 00:59:18;;;;;;;11.00;7.10;;;;;;;21.31;64.15;98631.02;140708;1247;25909;-85
2023/09/21 01:02:22;;;;;;;9.60;6.40;;;;;;;21.18;64.45;98627.02;140099;1247;22520;-85
2023/09/21 01:05:23;;;;;;;10.60;6.30;;;;;;;21.13;64.60;98625.06;140227;1247;22752;-84
2023/09/21 01:08:28;;;;;;;12.00;7.10;;;;;;;21.16;64.87;98623.39;140703;1244;22531;-86
2023/09/21 01:11:30;;;;;;;10.10;6.90;;;;;;;21.28;64.85;98624.06;140488;1247;23159;-84
2023/09/21 01:14:32;;;;;;;9.90;7.10;;;;;;;21.44;64.64;98622.09;140301;1246;22229;-85
2023/09/21 01:17:33;;;;;;;12.60;7.20;;;;;;;21.46;64.22;98618.64;140378;1247;25387;-85
2023/09/21 01:20:34;;;;;;;59.70;24.90;;;;;;;21.36;64.55;98614.23;140769;1247;22964;-85
2023/09/21 01:23:36;;;;;;;21.00;9.70;;;;;;;21.34;64.80;98610.92;140315;1247;22882;-84
2023/09/21 01:26:37;;;;;;;20.60;8.40;;;;;;;21.23;65.44;98609.55;140298;1247;23001;-84
2023/09/21 01:29:38;;;;;;;13.70;7.20;;;;;;;21.08;66.17;98602.79;140832;1247;22848;-85
2023/09/21 01:33:23;;;;;;;15.50;7.90;;;;;;;20.92;67.01;98600.30;132613;1313;560569;-84
2023/09/21 01:36:30;;;;;;;9.90;7.40;;;;;;;20.95;67.58;98601.46;135641;1288;22236;-85
2023/09/21 01:39:32;;;;;;;8.90;7.50;;;;;;;20.96;67.57;98598.23;137083;1276;22547;-86
2023/09/21 01:42:36;;;;;;;19.20;8.80;;;;;;;20.94;67.82;98595.62;136691;1276;22543;-85
2023/09/21 01:45:39;;;;;;;16.70;8.00;;;;;;;20.92;67.91;98594.46;136593;1273;321383;-80
2023/09/21 01:48:42;;;;;;;24.00;8.10;;;;;;;20.88;68.08;98594.11;137180;1273;22554;-86
2023/09/21 01:51:45;;;;;;;12.20;8.80;;;;;;;20.94;67.79;98589.09;136961;1273;22249;-81
2023/09/21 01:54:46;;;;;;;27.80;16.00;;;;;;;20.40;67.00;98586.60;137170;1273;22267;-82
2023/09/21 01:57:47;;;;;;;14.90;9.00;;;;;;;19.73;70.41;98589.83;137172;1273;22541;-84
2023/09/21 02:00:49;;;;;;;21.80;9.50;;;;;;;19.91;70.51;98585.95;137308;1273;22591;-82
2023/09/21 02:03:52;;;;;;;15.00;9.70;;;;;;;19.11;69.40;98583.58;137235;1273;22422;-82
2023/09/21 02:06:53;;;;;;;10.50;9.40;;;;;;;17.94;71.39;98587.40;137212;1273;22740;-81
2023/09/21 02:09:55;;;;;;;12.20;9.60;;;;;;;17.10;74.36;98586.40;137407;1273;22218;-82
2023/09/21 02:12:57;;;;;;;12.70;10.50;;;;;;;16.45;77.04;98585.02;137233;1273;22200;-82
2023/09/21 02:15:58;;;;;;;10.70;9.60;;;;;;;16.00;79.06;98579.52;137105;1273;22657;-82
2023/09/21 02:19:00;;;;;;;22.00;10.40;;;;;;;15.68;81.57;98579.25;137479;1273;22515;-79
2023/09/21 02:22:04;;;;;;;15.10;11.10;;;;;;;15.41;83.17;98579.18;137210;1273;22182;-82
2023/09/21 02:25:10;;;;;;;13.50;10.40;;;;;;;15.19;84.76;98580.30;137160;1273;22368;-83
2023/09/21 02:28:11;;;;;;;35.00;13.90;;;;;;;15.01;86.47;98576.47;137172;1273;22541;-83
2023/09/21 02:31:13;;;;;;;19.10;13.30;;;;;;;14.84;87.76;98578.39;137258;1273;22626;-83
2023/09/21 02:34:15;;;;;;;18.20;11.90;;;;;;;14.72;90.00;98576.89;137082;1273;22208;-81
2023/09/21 02:37:16;;;;;;;15.20;12.20;;;;;;;14.60;91.08;98571.91;136926;1267;22509;-83
2023/09/21 02:40:17;;;;;;;18.80;12.70;;;;;;;14.52;92.09;98575.31;137488;1273;22208;-83
2023/09/21 02:43:19;;;;;;;17.00;12.70;;;;;;;14.43;93.57;98574.31;136993;1273;22554;-83
2023/09/21 02:46:20;;;;;;;24.90;13.90;;;;;;;14.34;94.83;98570.69;137153;1273;22685;-83
2023/09/21 02:49:21;;;;;;;23.80;13.30;;;;;;;14.26;95.87;98571.10;137523;1274;22532;-83
2023/09/21 02:52:22;;;;;;;17.40;12.80;;;;;;;14.19;97.56;98570.98;137221;1273;22546;-82
2023/09/21 02:55:23;;;;;;;18.70;13.30;;;;;;;14.14;99.06;98569.09;137091;1274;22707;-81
2023/09/21 02:58:24;;;;;;;66.70;15.30;;;;;;;14.10;99.88;98567.71;137032;1274;22576;-80
2023/09/21 03:01:26;;;;;;;26.00;14.60;;;;;;;14.07;100.00;98569.66;137054;1273;22169;-79
2023/09/21 03:04:27;;;;;;;16.00;13.40;;;;;;;14.05;100.00;98568.27;137289;1273;22543;-81
2023/09/21 03:07:28;;;;;;;16.90;13.20;;;;;;;14.00;100.00;98569.36;137299;1274;23244;-80
2023/09/21 03:10:29;;;;;;;19.60;15.10;;;;;;;13.96;100.00;98569.73;137145;1273;22545;-81
2023/09/21 03:13:30;;;;;;;15.60;13.70;;;;;;;13.92;100.00;98569.76;137230;1273;22386;-81
2023/09/21 03:16:32;;;;;;;18.60;13.50;;;;;;;13.88;100.00;98564.54;137502;1273;22176;-81
2023/09/21 03:19:33;;;;;;;21.30;14.50;;;;;;;13.86;100.00;98564.52;137457;1274;22282;-81
2023/09/21 03:22:35;;;;;;;20.60;13.70;;;;;;;13.83;100.00;98559.98;137382;1267;22248;-81
2023/09/21 03:25:40;;;;;;;18.90;15.00;;;;;;;13.80;100.00;98561.74;137115;1274;22289;-81
2023/09/21 03:28:41;;;;;;;17.10;14.30;;;;;;;13.78;100.00;98560.02;137490;1273;22167;-84
2023/09/21 03:31:43;;;;;;;19.00;10.20;;;;;;;13.75;100.00;98555.48;137074;1274;22573;-83
2023/09/21 03:34:45;;;;;;;17.60;11.10;;;;;;;14.12;100.00;98551.25;136999;1274;23107;-86
2023/09/21 03:37:47;;;;;;;22.00;12.90;;;;;;;15.20;100.00;98558.89;137220;1273;22586;-85
2023/09/21 03:40:49;;;;;;;21.50;12.80;;;;;;;16.08;100.00;98554.14;137201;1273;22221;-83
2023/09/21 03:43:50;;;;;;;25.80;12.20;;;;;;;17.08;100.00;98547.77;137288;1273;22280;-83
2023/09/21 03:46:51;;;;;;;35.50;12.10;;;;;;;17.60;100.00;98545.17;137341;1274;22646;-84
2023/09/21 03:49:52;;;;;;;15.60;10.40;;;;;;;17.93;100.00;98543.59;137443;1273;22281;-85
2023/09/21 03:52:54;;;;;;;17.30;10.60;;;;;;;17.73;100.00;98542.97;137391;1270;22633;-85
2023/09/21 03:55:55;;;;;;;16.80;10.60;;;;;;;17.47;100.00;98545.25;137421;1273;22209;-84
2023/09/21 03:58:56;;;;;;;20.00;10.70;;;;;;;17.35;100.00;98542.70;137413;1273;22230;-84
2023/09/21 04:01:58;;;;;;;17.00;11.00;;;;;;;17.31;100.00;98541.35;137432;1273;22208;-83
2023/09/21 04:05:09;;;;;;;15.70;9.00;;;;;;;17.22;100.00;98536.42;137114;1273;22273;-85
2023/09/21 04:08:10;;;;;;;14.20;10.10;;;;;;;17.48;100.00;98536.60;137468;1273;22236;-86
2023/09/21 04:11:12;;;;;;;14.20;11.40;;;;;;;18.14;100.00;98537.85;137418;1273;22324;-84
2023/09/21 04:14:13;;;;;;;23.80;11.20;;;;;;;18.08;100.00;98540.79;137265;1274;22404;-84
2023/09/21 04:17:14;;;;;;;28.70;15.30;;;;;;;17.63;100.00;98537.02;137200;1274;22566;-83
2023/09/21 04:20:16;;;;;;;791.40;68.40;;;;;;;17.31;100.00;98538.89;137422;1273;22255;-84
2023/09/21 04:23:17;;;;;;;281.60;29.70;;;;;;;17.43;100.00;98536.38;137330;1273;22219;-84
2023/09/21 04:26:19;;;;;;;30.00;12.90;;;;;;;17.58;100.00;98531.84;137339;1273;22234;-83
2023/09/21 04:29:20;;;;;;;19.20;11.80;;;;;;;17.52;100.00;98531.44;137349;1273;22305;-84
2023/09/21 04:32:21;;;;;;;102.50;17.70;;;;;;;17.04;100.00;98528.86;137392;1274;22371;-82
2023/09/21 04:35:22;;;;;;;27.00;13.00;;;;;;;16.62;100.00;98527.50;137355;1274;22218;-84
2023/09/21 04:38:23;;;;;;;305.10;33.90;;;;;;;16.30;100.00;98529.56;137314;1274;22992;-84
2023/09/21 04:41:25;;;;;;;136.50;22.00;;;;;;;16.08;100.00;98532.73;137391;1274;22692;-85
2023/09/21 04:44:26;;;;;;;130.20;25.00;;;;;;;16.02;100.00;98531.41;137408;1273;22229;-84
2023/09/21 04:47:27;;;;;;;65.80;16.30;;;;;;;16.00;100.00;98531.97;137392;1274;22538;-84
2023/09/21 04:50:28;;;;;;;28.40;13.30;;;;;;;15.91;100.00;98530.17;137375;1274;22725;-84
2023/09/21 04:53:30;;;;;;;17.90;12.70;;;;;;;15.74;100.00;98530.23;137362;1273;22244;-85
2023/09/21 04:56:31;;;;;;;16.70;13.10;;;;;;;15.65;100.00;98532.99;137380;1274;22568;-84
2023/09/21 04:59:32;;;;;;;20.50;12.60;;;;;;;15.60;100.00;98529.02;137427;1273;22172;-84
2023/09/21 05:02:33;;;;;;;15.60;12.20;;;;;;;15.57;100.00;98529.90;137391;1273;22181;-83
2023/09/21 05:05:34;;;;;;;25.40;18.90;;;;;;;15.50;100.00;98532.07;137402;1273;22265;-84
2023/09/21 05:08:36;;;;;;;17.70;14.70;;;;;;;15.56;100.00;98530.08;137327;1274;22700;-85
2023/09/21 05:11:38;;;;;;;16.40;13.90;;;;;;;15.39;100.00;98532.04;137291;1273;22334;-86
2023/09/21 05:14:43;;;;;;;15.00;13.40;;;;;;;15.15;100.00;98524.45;137380;1273;22647;-85
2023/09/21 05:17:44;;;;;;;18.30;14.00;;;;;;;14.98;100.00;98526.73;137279;1273;22646;-86
2023/09/21 05:20:45;;;;;;;24.70;14.80;;;;;;;14.84;100.00;98527.23;137370;1274;22238;-84
2023/09/21 05:23:46;;;;;;;17.30;13.90;;;;;;;14.80;100.00;98528.86;137379;1273;22239;-84
2023/09/21 05:26:47;;;;;;;18.90;13.10;;;;;;;14.84;100.00;98526.18;137369;1273;22374;-82
2023/09/21 05:29:49;;;;;;;16.50;14.20;;;;;;;14.86;100.00;98526.33;137359;1273;22161;-82
2023/09/21 05:32:50;;;;;;;16.60;13.40;;;;;;;14.89;100.00;98527.89;137381;1273;22677;-84
2023/09/21 05:35:53;;;;;;;14.80;13.00;;;;;;;14.95;100.00;98526.42;137381;1273;22861;-85
2023/09/21 05:38:55;;;;;;;17.00;13.30;;;;;;;15.07;100.00;98524.54;137379;1273;22199;-84
2023/09/21 05:41:58;;;;;;;17.20;13.00;;;;;;;15.14;100.00;98523.75;137396;1273;22274;-87
2023/09/21 05:45:01;;;;;;;19.30;14.10;;;;;;;15.25;100.00;98523.95;137390;1274;22123;-85
2023/09/21 05:48:03;;;;;;;66.50;50.60;;;;;;;15.36;100.00;98522.61;137378;1274;22157;-85
2023/09/21 05:51:04;;;;;;;22.80;14.80;;;;;;;15.53;100.00;98524.16;137416;1273;22213;-84
2023/09/21 05:54:06;;;;;;;26.60;14.10;;;;;;;15.73;100.00;98522.55;137404;1273;22198;-84
2023/09/21 05:57:07;;;;;;;14.20;12.30;;;;;;;15.86;100.00;98527.61;137362;1263;22756;-83
2023/09/21 06:00:08;;;;;;;14.50;12.00;;;;;;;15.97;100.00;98526.76;137360;1273;22235;-84
2023/09/21 06:03:09;;;;;;;34.30;12.60;;;;;;;16.06;100.00;98527.15;137371;1274;23318;-78
2023/09/21 06:06:10;;;;;;;26.60;12.80;;;;;;;16.19;100.00;98522.89;137378;1273;22137;-81
2023/09/21 06:09:18;;;;;;;23.90;11.90;;;;;;;16.35;100.00;98524.22;137453;1270;22685;-81
2023/09/21 06:12:19;;;;;;;12.20;11.00;;;;;;;16.52;100.00;98525.54;137521;1274;22811;-81
2023/09/21 06:15:21;;;;;;;21.70;11.30;;;;;;;16.67;100.00;98525.49;137411;1273;22248;-82
2023/09/21 06:18:22;;;;;;;20.80;11.40;;;;;;;16.79;100.00;98524.39;137442;1273;22701;-83
2023/09/21 06:21:24;;;;;;;15.50;10.20;;;;;;;16.80;100.00;98525.61;137391;1273;22271;-80
2023/09/21 06:24:25;;;;;;;12.20;10.20;;;;;;;16.77;100.00;98520.39;137378;1273;22206;-81
2023/09/21 06:27:26;;;;;;;17.10;9.60;;;;;;;16.83;100.00;98522.04;137372;1273;22179;-80
2023/09/21 06:30:27;;;;;;;13.70;10.20;;;;;;;17.00;100.00;98513.80;137362;1273;22649;-81
2023/09/21 06:33:28;;;;;;;11.40;9.20;;;;;;;17.14;100.00;98512.84;137395;1273;22573;-82
2023/09/21 06:36:30;;;;;;;16.30;9.50;;;;;;;17.33;100.00;98516.69;137326;1273;22154;-82
2023/09/21 06:39:31;;;;;;;11.00;8.40;;;;;;;17.52;100.00;98507.16;137378;1273;22348;-83
2023/09/21 06:42:33;;;;;;;18.60;8.50;;;;;;;17.73;100.00;98512.34;137356;1273;22184;-79
2023/09/21 06:45:34;;;;;;;17.20;8.80;;;;;;;17.91;100.00;98511.77;137350;1273;22227;-82
2023/09/21 06:48:35;;;;;;;11.70;8.10;;;;;;;18.07;100.00;98514.75;137386;1273;22342;-82
2023/09/21 06:51:36;;;;;;;14.40;8.90;;;;;;;18.22;100.00;98514.60;137379;1262;22209;-83
2023/09/21 06:54:38;;;;;;;14.10;8.10;;;;;;;18.36;100.00;98517.08;137363;1273;22307;-83
2023/09/21 06:57:39;;;;;;;10.10;6.90;;;;;;;18.56;100.00;98518.18;137374;1273;22232;-83
2023/09/21 07:00:41;;;;;;;9.20;7.60;;;;;;;18.72;100.00;98517.77;137424;1273;22775;-82
2023/09/21 07:03:42;;;;;;;12.50;7.10;;;;;;;18.83;100.00;98516.08;137398;1273;22231;-84
2023/09/21 07:06:43;;;;;;;33.30;8.60;;;;;;;19.27;100.00;98513.64;137420;1274;22618;-84
2023/09/21 07:09:45;;;;;;;14.50;6.90;;;;;;;19.92;100.00;98512.10;137505;1273;22216;-84
2023/09/21 07:12:46;;;;;;;8.40;6.20;;;;;;;20.41;100.00;98506.52;137461;1273;22383;-84
2023/09/21 07:15:48;;;;;;;24.60;7.30;;;;;;;20.77;100.00;98508.30;137473;1273;22251;-83
2023/09/21 07:18:49;;;;;;;12.10;6.30;;;;;;;21.09;100.00;98506.14;137351;1273;22873;-84
2023/09/21 07:21:51;;;;;;;11.60;6.00;;;;;;;21.33;100.00;98502.48;137390;1273;22114;-84
2023/09/21 07:24:52;;;;;;;12.20;6.10;;;;;;;21.43;100.00;98501.23;137407;1273;23159;-84
2023/09/21 07:27:54;;;;;;;175.90;16.20;;;;;;;21.57;100.00;98502.81;137338;1273;22482;-81
2023/09/21 07:30:55;;;;;;;134.60;11.90;;;;;;;21.91;100.00;98501.00;137463;1273;22207;-84
2023/09/21 07:33:58;;;;;;;32.60;6.90;;;;;;;22.19;100.00;98498.30;137399;1273;22862;-84
2023/09/21 07:36:59;;;;;;;15.30;5.70;;;;;;;22.32;100.00;98497.41;137435;1273;22265;-84
2023/09/21 07:40:06;;;;;;;16.10;5.40;;;;;;;22.47;100.00;98497.49;137556;1273;22851;-84
2023/09/21 07:43:07;;;;;;;72.00;9.30;;;;;;;22.44;100.00;98494.98;137544;1273;22337;-85
2023/09/21 07:46:08;;;;;;;15.20;5.50;;;;;;;22.45;100.00;98494.91;137560;1273;22218;-84
2023/09/21 07:49:10;;;;;;;26.10;6.10;;;;;;;22.57;100.00;98490.70;137556;1273;22423;-84
2023/09/21 07:52:11;;;;;;;11.70;5.70;;;;;;;22.75;100.00;98488.90;137613;1273;22186;-84
2023/09/21 07:55:13;;;;;;;19.20;5.90;;;;;;;22.78;100.00;98486.09;137424;1273;22233;-84
2023/09/21 07:58:15;;;;;;;6.70;4.50;;;;;;;22.84;100.00;98485.86;137422;1273;22796;-84
2023/09/21 08:01:16;;;;;;;14.50;5.80;;;;;;;23.04;100.00;98481.27;137482;1273;22266;-83
2023/09/21 08:04:18;;;;;;;37.20;6.50;;;;;;;23.15;100.00;98477.23;137458;1273;22212;-80
2023/09/21 08:07:23;;;;;;;35.70;7.20;;;;;;;23.11;100.00;98477.05;137351;1273;22386;-82
2023/09/21 08:10:24;;;;;;;22.90;4.90;;;;;;;23.26;100.00;98479.55;137355;1273;22273;-82
2023/09/21 08:13:29;;;;;;;16.80;4.90;;;;;;;23.42;100.00;98476.72;137326;1273;22719;-84
2023/09/21 08:16:30;;;;;;;10.40;4.00;;;;;;;23.55;100.00;98477.08;137367;1273;22230;-83
2023/09/21 08:19:31;;;;;;;17.80;5.10;;;;;;;23.58;100.00;98474.77;137401;1273;22224;-84
2023/09/21 08:22:32;;;;;;;13.00;4.00;;;;;;;23.55;100.00;98476.35;137416;1273;22401;-84
2023/09/21 08:25:37;;;;;;;5.10;3.70;;;;;;;23.65;100.00;98478.89;137418;1273;23092;-83
2023/09/21 08:28:38;;;;;;;42.80;6.60;;;;;;;23.70;100.00;98478.13;137380;1273;22250;-81
2023/09/21 08:31:41;;;;;;;11.90;4.10;;;;;;;23.75;100.00;98472.39;137369;1273;23022;-84
2023/09/21 08:34:44;;;;;;;9.00;3.50;;;;;;;23.80;100.00;98467.35;137356;1273;22256;-83
2023/09/21 08:37:45;;;;;;;5.20;3.60;;;;;;;23.83;100.00;98465.61;137413;1273;22185;-84
2023/09/21 08:40:47;;;;;;;25.30;4.50;;;;;;;23.89;100.00;98461.77;137397;1273;22249;-85
2023/09/21 08:43:49;;;;;;;14.60;4.00;;;;;;;23.95;100.00;98458.63;137432;1266;22229;-85
2023/09/21 08:46:50;;;;;;;9.20;3.40;;;;;;;24.18;100.00;98460.38;137248;1273;22601;-85
2023/09/21 08:49:52;;;;;;;121.40;11.90;;;;;;;24.49;100.00;98460.45;137289;1273;22237;-84
2023/09/21 08:52:53;;;;;;;20.40;4.70;;;;;;;24.80;100.00;98458.51;137375;1273;23029;-85
2023/09/21 08:55:54;;;;;;;19.70;4.40;;;;;;;24.94;100.00;98457.41;137349;1273;22218;-84
2023/09/21 08:58:56;;;;;;;20.70;4.10;;;;;;;24.90;100.00;98453.89;137407;1273;22223;-82
2023/09/21 09:01:57;;;;;;;11.70;3.10;;;;;;;24.87;100.00;98455.45;137407;1273;22189;-84
2023/09/21 09:04:58;;;;;;;7.80;3.30;;;;;;;24.80;79.19;98452.42;137463;1273;22597;-85
2023/09/21 09:07:59;;;;;;;24.40;3.80;;;;;;;24.79;65.29;98446.61;137426;1273;22211;-86
2023/09/21 09:11:03;;;;;;;11.10;3.50;;;;;;;24.76;65.35;98442.49;137424;1270;22284;-85
2023/09/21 09:14:05;;;;;;;7.10;3.70;;;;;;;24.82;64.75;98443.26;137374;1273;22622;-85
2023/09/21 09:17:06;;;;;;;12.80;3.70;;;;;;;24.91;65.38;98440.65;137189;1274;22992;-81
2023/09/21 09:20:08;;;;;;;14.40;3.30;;;;;;;25.06;64.18;98434.18;137351;1273;22765;-84
2023/09/21 09:23:10;;;;;;;14.10;3.60;;;;;;;25.12;64.66;98431.91;137462;1270;22245;-83
2023/09/21 09:26:12;;;;;;;341.70;35.80;;;;;;;25.16;64.02;98430.83;137416;1273;22235;-87
2023/09/21 09:29:13;;;;;;;147.30;14.80;;;;;;;25.23;63.90;98427.62;137407;1273;22236;-83
2023/09/21 09:32:14;;;;;;;12.90;3.50;;;;;;;25.31;63.85;98431.09;137458;1270;22232;-85
2023/09/21 09:35:17;;;;;;;12.00;3.00;;;;;;;25.34;63.29;98430.70;137333;1273;22392;-83
2023/09/21 09:38:18;;;;;;;13.60;3.30;;;;;;;25.41;62.14;98424.13;137416;1273;23467;-85
2023/09/21 09:41:20;;;;;;;178.40;23.00;;;;;;;25.41;61.63;98424.65;137136;1273;22827;-85
2023/09/21 09:44:21;;;;;;;10.10;3.60;;;;;;;25.30;61.01;98423.33;137339;1273;22744;-84
2023/09/21 09:47:24;;;;;;;19.40;4.50;;;;;;;25.34;61.09;98421.66;137425;1273;22984;-84
2023/09/21 09:50:25;;;;;;;4.30;3.10;;;;;;;25.44;61.17;98417.73;137400;1273;22211;-85
2023/09/21 09:53:28;;;;;;;6.90;3.20;;;;;;;25.65;61.85;98413.02;137440;1273;22339;-84
2023/09/21 09:56:29;;;;;;;9.70;2.60;;;;;;;25.79;60.87;98413.52;137417;1273;22990;-83
2023/09/21 09:59:30;;;;;;;4.80;2.70;;;;;;;25.81;59.85;98411.05;137031;1273;23205;-84
2023/09/21 10:02:32;;;;;;;7.40;3.00;;;;;;;25.77;60.27;98404.54;137510;1273;22799;-85
2023/09/21 10:05:35;;;;;;;6.90;2.80;;;;;;;25.83;58.96;98398.80;137430;1273;22422;-85
2023/09/21 10:08:38;;;;;;;5.60;2.60;;;;;;;25.96;60.41;98396.46;136808;1273;22572;-85
2023/09/21 10:11:42;;;;;;;1301.00;119.10;;;;;;;26.21;60.47;98396.08;137137;1273;22273;-84
2023/09/21 10:14:44;;;;;;;21.40;4.40;;;;;;;26.29;58.62;98398.45;137444;1273;22219;-84
2023/09/21 10:17:50;;;;;;;11.90;2.70;;;;;;;26.22;58.11;98391.94;137485;1273;22109;-84
2023/09/21 10:20:55;;;;;;;10.50;3.20;;;;;;;26.09;57.79;98392.03;137471;1261;22258;-83
2023/09/21 10:23:56;;;;;;;12.00;3.20;;;;;;;26.09;58.88;98385.80;137479;1273;22313;-83
2023/09/21 10:26:58;;;;;;;68.10;7.00;;;;;;;26.11;59.41;98388.86;137253;1273;24365;-84
2023/09/21 10:30:02;;;;;;;36.70;5.00;;;;;;;26.24;59.64;98383.29;137217;1273;22447;-84
2023/09/21 10:33:04;;;;;;;82.70;9.60;;;;;;;26.28;58.46;98380.14;137269;1273;22084;-84
2023/09/21 10:36:07;;;;;;;23.30;5.10;;;;;;;26.30;57.16;98377.18;137271;1273;22566;-83
2023/09/21 10:39:09;;;;;;;6.20;2.70;;;;;;;26.28;57.07;98373.92;137438;1273;22613;-84
2023/09/21 10:42:13;;;;;;;8.50;3.20;;;;;;;26.31;57.71;98373.75;136835;1273;23340;-83
2023/09/21 10:45:17;;;;;;;4.40;2.60;;;;;;;26.32;56.74;98369.27;137592;1273;22106;-87
2023/09/21 10:48:18;;;;;;;19.20;3.70;;;;;;;26.30;56.94;98362.57;137626;1273;22205;-85
2023/09/21 10:51:20;;;;;;;5.70;2.60;;;;;;;26.30;58.23;98359.51;137549;1273;22113;-83
2023/09/21 10:54:21;;;;;;;21.20;4.80;;;;;;;26.33;57.56;98360.99;137523;1273;22380;-86
2023/09/21 10:57:24;;;;;;;8.50;2.40;;;;;;;26.36;57.09;98357.23;137523;1273;22102;-83
2023/09/21 11:00:25;;;;;;;11.20;3.20;;;;;;;26.34;56.66;98352.54;137498;1273;22241;-82
2023/09/21 11:03:27;;;;;;;36.40;4.90;;;;;;;26.32;56.13;98351.03;137524;1273;22776;-82
2023/09/21 11:06:28;;;;;;;9.70;3.20;;;;;;;26.33;56.55;98351.86;137519;1273;22265;-82
2023/09/21 11:09:31;;;;;;;6.50;3.30;;;;;;;26.27;56.29;98343.48;137509;1273;22934;-84
2023/09/21 11:12:32;;;;;;;4.90;2.60;;;;;;;26.15;56.79;98336.89;137539;1273;22140;-83
2023/09/21 11:15:33;;;;;;;6.70;2.70;;;;;;;26.10;56.49;98338.64;137518;1273;22546;-83
2023/09/21 11:18:34;;;;;;;3.00;2.70;;;;;;;26.04;56.88;98331.34;137484;1274;22116;-80
2023/09/21 11:21:35;;;;;;;5.40;2.70;;;;;;;26.00;57.15;98330.79;137451;1273;22255;-81
2023/09/21 11:24:37;;;;;;;14.20;3.00;;;;;;;26.09;58.05;98327.44;137452;1273;22202;-84
2023/09/21 11:27:39;;;;;;;21.80;3.70;;;;;;;26.19;58.18;98327.23;137427;1273;22615;-83
2023/09/21 11:30:40;;;;;;;14.30;3.60;;;;;;;26.27;57.29;98322.27;137510;1273;22336;-81
2023/09/21 11:33:41;;;;;;;6.90;3.30;;;;;;;26.26;56.96;98320.92;137440;1273;22639;-81
2023/09/21 11:36:42;;;;;;;25.70;4.80;;;;;;;26.24;58.08;98324.23;137468;1273;22167;-83
2023/09/21 11:39:46;;;;;;;32.10;5.40;;;;;;;26.36;60.14;98315.15;137455;1273;22499;-81
2023/09/21 11:42:47;;;;;;;;;;;;;;;26.51;58.96;98311.40;137483;1273;22698;-81
2023/09/21 11:45:48;;;;;;;74.20;8.20;;;;;;;26.49;58.08;98310.11;137472;1273;22263;-84
2023/09/21 11:48:49;;;;;;;29.40;4.70;;;;;;;26.48;57.66;98307.13;137422;1273;22215;-82
2023/09/21 11:51:50;;;;;;;15.90;3.50;;;;;;;26.48;56.99;98299.98;137401;1273;22458;-82
2023/09/21 11:54:52;;;;;;;13.90;3.90;;;;;;;26.48;56.22;98296.41;137402;1273;22091;-82
2023/09/21 11:57:54;;;;;;;8.10;3.60;;;;;;;26.43;57.11;98293.11;137431;1273;22143;-82
2023/09/21 12:01:15;;;;;;;6.10;3.50;;;;;;;26.47;57.31;98280.92;137432;1273;22191;-82
2023/09/21 12:04:17;;;;;;;8.70;3.30;;;;;;;26.65;57.70;98274.66;137465;1273;22478;-82
2023/09/21 12:07:19;;;;;;;9.10;3.60;;;;;;;26.75;57.74;98272.06;137511;1273;22169;-84
2023/09/21 12:10:21;;;;;;;14.90;3.50;;;;;;;26.78;57.24;98268.30;137465;1273;22147;-80
2023/09/21 12:13:23;;;;;;;10.30;3.30;;;;;;;26.70;57.31;98265.77;137453;1273;22705;-81
2023/09/21 12:16:24;;;;;;;11.40;3.70;;;;;;;26.61;57.23;98262.39;137496;1273;22586;-80
2023/09/21 12:19:26;;;;;;;16.40;3.90;;;;;;;26.68;57.39;98260.18;137481;1274;22327;-80
2023/09/21 12:22:27;;;;;;;13.40;3.50;;;;;;;26.76;57.14;98253.81;137462;1273;22183;-78
2023/09/21 12:25:29;;;;;;;13.30;3.20;;;;;;;26.81;56.97;98249.73;137467;1273;22575;-80
2023/09/21 12:28:30;;;;;;;6.80;3.20;;;;;;;26.84;56.51;98244.85;137499;1273;22896;-77
2023/09/21 12:31:32;;;;;;;16.00;3.90;;;;;;;26.87;55.78;98240.61;137533;1273;22149;-78
2023/09/21 12:34:34;;;;;;;5.40;2.30;;;;;;;26.93;54.66;98242.39;137540;1273;22452;-79
2023/09/21 12:37:35;;;;;;;91.80;8.80;;;;;;;26.90;54.22;98238.09;137534;1273;22111;-78
2023/09/21 12:40:36;;;;;;;31.80;4.40;;;;;;;26.93;54.64;98236.14;137584;1273;22114;-78
2023/09/21 12:43:38;;;;;;;22.90;3.60;;;;;;;26.94;53.65;98231.23;137602;1263;22230;-79
2023/09/21 12:46:39;;;;;;;8.60;2.80;;;;;;;26.98;53.48;98229.40;137557;1273;22110;-80
2023/09/21 12:49:40;;;;;;;9.80;3.00;;;;;;;26.97;53.40;98226.79;137519;1273;22292;-80
2023/09/21 12:52:42;;;;;;;10.10;2.40;;;;;;;26.96;53.03;98226.11;137498;1273;22128;-80
2023/09/21 12:55:44;;;;;;;8.90;2.30;;;;;;;26.97;52.15;98222.33;137503;1273;22086;-81
2023/09/21 12:58:45;;;;;;;14.90;2.20;;;;;;;27.07;52.17;98220.10;137526;1274;22586;-80
2023/09/21 13:01:47;;;;;;;12.40;3.00;;;;;;;27.09;50.97;98215.14;137506;1273;22111;-80
2023/09/21 13:04:48;;;;;;;12.10;2.80;;;;;;;27.03;49.90;98207.84;137436;1273;22092;-80
2023/09/21 13:07:51;;;;;;;6.30;2.20;;;;;;;27.02;49.75;98203.98;137430;1273;22342;-80
2023/09/21 13:10:52;;;;;;;6.20;1.90;;;;;;;27.00;49.56;98202.33;137413;1263;22258;-81
2023/09/21 13:13:53;;;;;;;14.00;2.60;;;;;;;27.06;50.42;98191.92;137377;1273;22472;-81
2023/09/21 13:16:56;;;;;;;8.90;2.60;;;;;;;27.11;50.59;98193.90;137430;1273;22147;-80
2023/09/21 13:19:57;;;;;;;8.60;2.10;;;;;;;27.19;50.47;98187.98;137386;1259;22076;-81
2023/09/21 13:22:58;;;;;;;6.40;1.90;;;;;;;27.23;50.02;98187.23;137358;1273;22129;-80
2023/09/21 13:26:00;;;;;;;7.30;1.90;;;;;;;27.24;49.51;98185.03;137382;1273;22095;-80
2023/09/21 13:29:01;;;;;;;29.50;3.10;;;;;;;27.18;49.78;98183.42;137366;1273;22133;-79
2023/09/21 13:32:02;;;;;;;8.10;2.10;;;;;;;27.06;49.36;98185.14;137381;1273;22312;-80
2023/09/21 13:35:04;;;;;;;4.80;1.80;;;;;;;27.05;49.95;98181.63;137360;1273;22106;-78
2023/09/21 13:38:05;;;;;;;46.30;5.00;;;;;;;27.00;50.21;98172.48;137400;1273;22096;-81
2023/09/21 13:41:07;;;;;;;36.20;3.80;;;;;;;27.05;51.01;98172.55;137402;1274;22081;-80
2023/09/21 13:44:08;;;;;;;15.90;3.10;;;;;;;27.13;51.62;98169.14;137479;1273;22121;-80
2023/09/21 13:47:09;;;;;;;17.40;3.10;;;;;;;27.16;51.55;98166.08;137342;1260;185298;-81
2023/09/21 13:50:11;;;;;;;8.90;2.90;;;;;;;27.17;52.09;98162.80;137496;1274;22624;-81